TimeEST,TemperatureF,Dew PointF,Humidity,Sea Level PressureIn,VisibilityMPH,Wind Direction,Wind SpeedMPH,Gust SpeedMPH,PrecipitationIn,Events,Conditions,WindDirDegrees,DateUTC
12:53 AM,69.1,66.0,90,30.11,10.0,Calm,Calm,-,N/A,,Partly Cloudy,0,2013-01-04 05:53:00
1:53 AM,66.9,64.0,90,30.11,10.0,Calm,Calm,-,N/A,,Clear,0,2013-01-04 06:53:00
2:53 AM,66.0,63.0,90,30.12,10.0,WNW,3.5,-,N/A,,Partly Cloudy,300,2013-01-04 07:53:00
3:53 AM,66.0,64.0,93,30.12,10.0,NW,3.5,-,N/A,,Partly Cloudy,310,2013-01-04 08:53:00
4:53 AM,66.9,64.9,93,30.12,10.0,Calm,Calm,-,N/A,,Partly Cloudy,0,2013-01-04 09:53:00
5:53 AM,64.9,64.0,97,30.13,10.0,Calm,Calm,-,N/A,,Partly Cloudy,0,2013-01-04 10:53:00
6:53 AM,64.9,63.0,93,30.15,10.0,Calm,Calm,-,N/A,,Scattered Clouds,0,2013-01-04 11:53:00
7:18 AM,66.2,64.4,94,30.16,10.0,North,4.6,-,N/A,,Mostly Cloudy,350,2013-01-04 12:18:00
7:53 AM,66.9,64.9,93,30.17,10.0,North,3.5,-,N/A,,Mostly Cloudy,350,2013-01-04 12:53:00
8:21 AM,68.0,66.2,94,30.19,10.0,NNW,5.8,-,N/A,,Scattered Clouds,340,2013-01-04 13:21:00
8:53 AM,71.1,66.9,87,30.19,10.0,Calm,Calm,-,N/A,,Scattered Clouds,0,2013-01-04 13:53:00
9:53 AM,73.9,68.0,82,30.20,10.0,NW,6.9,-,N/A,,Scattered Clouds,320,2013-01-04 14:53:00
10:53 AM,77.0,68.0,74,30.20,10.0,NNW,8.1,-,N/A,,Mostly Cloudy,330,2013-01-04 15:53:00
11:07 AM,78.8,68.0,69,30.20,10.0,NNW,4.6,-,N/A,,Mostly Cloudy,330,2013-01-04 16:07:00
11:53 AM,77.0,68.0,74,30.18,10.0,WNW,5.8,-,N/A,,Mostly Cloudy,290,2013-01-04 16:53:00
12:51 PM,78.8,66.2,65,30.15,10.0,NW,4.6,-,N/A,,Mostly Cloudy,320,2013-01-04 17:51:00
12:53 PM,80.1,66.9,64,30.15,10.0,NNW,4.6,-,N/A,,Mostly Cloudy,330,2013-01-04 17:53:00
1:53 PM,80.1,64.9,60,30.14,10.0,West,6.9,-,N/A,,Mostly Cloudy,280,2013-01-04 18:53:00
2:53 PM,78.1,68.0,71,30.12,10.0,NE,9.2,-,N/A,,Mostly Cloudy,40,2013-01-04 19:53:00
3:02 PM,77.0,68.0,74,30.12,10.0,NE,8.1,-,N/A,,Scattered Clouds,40,2013-01-04 20:02:00
3:53 PM,79.0,68.0,69,30.13,10.0,ENE,9.2,-,N/A,,Scattered Clouds,60,2013-01-04 20:53:00
4:53 PM,75.9,68.0,76,30.15,10.0,NNE,10.4,-,N/A,,Scattered Clouds,30,2013-01-04 21:53:00
5:53 PM,73.9,68.0,82,30.17,10.0,NNE,9.2,-,N/A,,Scattered Clouds,30,2013-01-04 22:53:00
6:53 PM,73.0,68.0,84,30.19,10.0,NNE,6.9,-,N/A,,Scattered Clouds,20,2013-01-04 23:53:00
7:36 PM,71.6,68.0,88,30.21,10.0,North,6.9,-,N/A,,Mostly Cloudy,350,2013-01-05 00:36:00
7:53 PM,72.0,68.0,87,30.21,10.0,North,9.2,-,N/A,,Mostly Cloudy,350,2013-01-05 00:53:00
8:03 PM,71.6,66.2,83,30.21,10.0,North,9.2,-,N/A,,Scattered Clouds,360,2013-01-05 01:03:00
8:43 PM,71.6,66.2,83,30.23,10.0,North,5.8,-,N/A,,Mostly Cloudy,360,2013-01-05 01:43:00
8:53 PM,71.1,66.9,87,30.23,10.0,North,6.9,-,N/A,,Mostly Cloudy,350,2013-01-05 01:53:00
9:53 PM,70.0,66.0,87,30.23,10.0,North,10.4,-,N/A,,Mostly Cloudy,360,2013-01-05 02:53:00
10:53 PM,70.0,66.0,87,30.23,10.0,North,9.2,-,N/A,,Overcast,360,2013-01-05 03:53:00
11:53 PM,69.1,66.0,90,30.22,10.0,NNW,5.8,-,N/A,,Overcast,340,2013-01-05 04:53:00